createdAt,value
2018-08-09T00:01:58.437Z,2.30
2018-08-09T00:04:26.926Z,6.80
2018-08-09T00:06:55.325Z,5.17
2018-08-09T00:09:23.846Z,3.70
2018-08-09T00:11:52.259Z,3.50
2018-08-09T00:14:20.662Z,4.60
2018-08-09T00:16:49.038Z,3.50
2018-08-09T00:19:17.477Z,2.60
2018-08-09T00:21:45.894Z,4.03
2018-08-09T00:24:14.263Z,4.73
2018-08-09T00:26:42.727Z,2.70
2018-08-09T00:29:13.932Z,3.93
2018-08-09T00:31:42.357Z,3.03
2018-08-09T00:34:10.741Z,4.37
2018-08-09T00:36:39.166Z,4.77
2018-08-09T00:39:08.876Z,4.77
2018-08-09T00:41:37.256Z,3.30
2018-08-09T00:44:05.871Z,3.90
2018-08-09T00:46:34.266Z,5.10
2018-08-09T00:49:02.661Z,5.80
2018-08-09T00:51:31.120Z,3.70
2018-08-09T00:53:59.614Z,5.80
2018-08-09T00:56:28.077Z,3.90
2018-08-09T00:58:56.469Z,5.00
2018-08-09T01:01:24.882Z,4.73
2018-08-09T01:03:53.701Z,4.23
2018-08-09T01:06:23.175Z,6.60
2018-08-09T01:08:56.983Z,7.17
2018-08-09T01:11:25.405Z,3.47
2018-08-09T01:13:53.901Z,4.83
2018-08-09T01:16:22.290Z,6.03
2018-08-09T01:18:50.723Z,5.17
2018-08-09T01:21:19.178Z,5.17
2018-08-09T01:23:47.680Z,5.90
2018-08-09T01:26:16.672Z,7.33
2018-08-09T01:28:45.151Z,6.43
2018-08-09T01:31:13.726Z,5.17
2018-08-09T01:33:42.184Z,8.23
2018-08-09T01:36:10.712Z,5.50
2018-08-09T01:38:39.150Z,4.13
2018-08-09T01:41:07.633Z,4.60
2018-08-09T01:43:47.365Z,6.33
2018-08-09T01:46:15.842Z,4.53
2018-08-09T01:48:44.367Z,4.73
2018-08-09T01:51:12.810Z,5.53
2018-08-09T01:53:41.243Z,5.53
2018-08-09T01:56:09.757Z,7.30
2018-08-09T01:58:38.279Z,6.47
2018-08-09T02:01:06.834Z,5.53
2018-08-09T02:03:35.224Z,5.23
2018-08-09T02:06:03.653Z,4.03
2018-08-09T02:08:32.203Z,8.17
2018-08-09T02:11:00.782Z,4.53
2018-08-09T02:13:29.214Z,4.30
2018-08-09T02:15:57.661Z,7.10
2018-08-09T02:18:26.227Z,7.40
2018-08-09T02:20:54.610Z,5.73
2018-08-09T02:23:23.045Z,6.57
2018-08-09T02:25:51.528Z,4.50
2018-08-09T02:28:19.957Z,5.97
2018-08-09T02:30:48.405Z,7.13
2018-08-09T02:33:16.925Z,5.20
2018-08-09T02:35:45.698Z,5.93
2018-08-09T02:38:14.105Z,8.60
2018-08-09T02:40:42.529Z,7.70
2018-08-09T02:43:10.980Z,7.97
2018-08-09T02:45:39.506Z,6.20
2018-08-09T02:48:07.884Z,5.93
2018-08-09T02:50:36.367Z,4.27
2018-08-09T02:53:04.945Z,5.93
2018-08-09T02:55:33.342Z,6.47
2018-08-09T02:58:01.757Z,4.80
2018-08-09T03:00:30.233Z,4.47
2018-08-09T03:02:58.948Z,5.00
2018-08-09T03:05:27.363Z,3.97
2018-08-09T03:07:55.809Z,4.03
2018-08-09T03:10:24.259Z,7.07
2018-08-09T03:12:52.714Z,3.87
2018-08-09T03:15:21.165Z,6.20
2018-08-09T03:17:49.637Z,5.50
2018-08-09T03:20:18.056Z,8.27
2018-08-09T03:22:46.438Z,6.87
2018-08-09T03:25:14.826Z,7.80
2018-08-09T03:27:43.327Z,8.43
2018-08-09T03:30:11.778Z,10.63
2018-08-09T03:32:40.215Z,9.93
2018-08-09T03:35:08.665Z,6.87
2018-08-09T03:37:37.805Z,6.50
2018-08-09T03:40:06.422Z,8.43
2018-08-09T03:42:34.806Z,6.43
2018-08-09T03:45:03.286Z,9.87
2018-08-09T03:47:31.725Z,9.10
2018-08-09T03:50:00.114Z,9.93
2018-08-09T03:52:28.566Z,8.80
2018-08-09T03:54:57.074Z,9.10
2018-08-09T03:57:32.089Z,11.17
2018-08-09T04:00:00.550Z,8.27
2018-08-09T04:02:28.933Z,8.23
2018-08-09T04:04:57.423Z,7.23
2018-08-09T04:07:26.013Z,11.87
2018-08-09T04:09:54.410Z,10.37
2018-08-09T04:12:22.822Z,8.53
2018-08-09T04:14:51.246Z,7.20
2018-08-09T04:17:20.773Z,7.03
2018-08-09T04:19:50.750Z,9.07
2018-08-09T04:22:19.985Z,10.67
2018-08-09T04:24:48.717Z,10.60
2018-08-09T04:27:17.257Z,10.90
2018-08-09T04:29:45.756Z,8.60
2018-08-09T04:32:14.216Z,7.67
2018-08-09T04:34:42.609Z,8.17
2018-08-09T04:37:11.064Z,9.70
2018-08-09T04:39:39.425Z,11.57
2018-08-09T04:42:07.842Z,9.47
2018-08-09T04:44:36.265Z,9.57
2018-08-09T04:47:04.681Z,10.87
2018-08-09T04:49:33.121Z,10.67
2018-08-09T04:52:01.654Z,9.23
2018-08-09T04:54:30.086Z,7.60
2018-08-09T04:56:58.745Z,8.40
2018-08-09T04:59:27.190Z,9.17
2018-08-09T05:01:55.590Z,12.47
2018-08-09T05:04:24.006Z,10.70
2018-08-09T05:06:52.422Z,11.70
2018-08-09T05:09:20.919Z,11.63
2018-08-09T05:11:49.367Z,10.27
2018-08-09T05:14:17.758Z,9.70
2018-08-09T05:16:46.109Z,12.53
2018-08-09T05:19:14.499Z,13.03
2018-08-09T05:21:42.877Z,12.63
2018-08-09T05:24:11.252Z,11.83
2018-08-09T05:26:39.673Z,12.90
2018-08-09T05:29:08.082Z,10.50
2018-08-09T05:31:36.522Z,11.23
2018-08-09T05:34:05.051Z,9.97
2018-08-09T05:36:33.418Z,13.13
2018-08-09T05:39:01.814Z,10.07
2018-08-09T05:41:30.287Z,12.47
2018-08-09T05:43:58.739Z,10.60
2018-08-09T05:46:27.846Z,11.77
2018-08-09T05:48:56.251Z,10.43
2018-08-09T05:51:24.613Z,12.73
2018-08-09T05:53:53.695Z,11.33
2018-08-09T05:56:22.182Z,14.33
2018-08-09T05:58:50.662Z,24.00
2018-08-09T06:01:19.071Z,15.33
2018-08-09T06:03:47.489Z,13.40
2018-08-09T06:06:15.885Z,14.07
2018-08-09T06:08:44.882Z,15.07
2018-08-09T06:11:13.296Z,18.17
2018-08-09T06:13:41.729Z,20.57
2018-08-09T06:16:10.133Z,13.63
2018-08-09T06:18:38.501Z,16.57
2018-08-09T06:21:06.938Z,15.37
2018-08-09T06:23:35.372Z,14.77
2018-08-09T06:26:03.829Z,20.33
2018-08-09T06:28:32.225Z,15.33
2018-08-09T06:31:00.643Z,20.47
2018-08-09T06:33:29.105Z,14.50
2018-08-09T06:36:04.322Z,16.23
2018-08-09T06:38:32.741Z,14.57
2018-08-09T06:41:01.101Z,14.13
2018-08-09T06:43:29.570Z,16.63
2018-08-09T06:46:04.630Z,13.23
2018-08-09T06:48:33.046Z,13.67
2018-08-09T06:51:01.577Z,14.47
2018-08-09T06:53:29.994Z,14.97
2018-08-09T06:55:58.401Z,14.70
2018-08-09T06:58:26.822Z,13.37
2018-08-09T07:00:55.242Z,14.33
2018-08-09T07:03:23.777Z,13.20
2018-08-09T07:05:52.177Z,15.00
2018-08-09T07:08:20.573Z,13.17
2018-08-09T07:10:49.102Z,12.50
2018-08-09T07:13:17.517Z,11.83
2018-08-09T07:15:45.978Z,13.73
2018-08-09T07:18:14.378Z,13.00
2018-08-09T07:20:42.777Z,16.20
2018-08-09T07:23:11.221Z,13.53
2018-08-09T07:25:39.699Z,17.60
2018-08-09T07:28:08.455Z,14.13
2018-08-09T07:30:36.869Z,14.13
2018-08-09T07:33:05.333Z,16.10
2018-08-09T07:35:33.705Z,14.47
2018-08-09T07:38:02.142Z,15.73
2018-08-09T07:40:31.322Z,13.47
2018-08-09T07:42:59.717Z,15.23
2018-08-09T07:45:28.111Z,10.83
2018-08-09T07:47:56.581Z,13.57
2018-08-09T07:50:24.993Z,17.57
2018-08-09T07:52:53.346Z,13.43
2018-08-09T07:55:21.835Z,12.30
2018-08-09T07:57:50.262Z,15.37
2018-08-09T08:00:18.693Z,17.03
2018-08-09T08:02:47.220Z,15.30
2018-08-09T08:05:16.594Z,16.23
2018-08-09T08:07:45.029Z,17.43
2018-08-09T08:10:13.601Z,16.27
2018-08-09T08:12:42.076Z,12.60
2018-08-09T08:15:11.391Z,11.83
2018-08-09T08:17:40.018Z,14.53
2018-08-09T08:20:08.833Z,16.97
2018-08-09T08:22:37.425Z,12.87
2018-08-09T08:25:06.724Z,15.40
2018-08-09T08:27:35.268Z,11.40
2018-08-09T08:30:05.253Z,12.90
2018-08-09T08:32:33.816Z,11.17
2018-08-09T08:35:03.340Z,11.93
2018-08-09T08:37:31.846Z,14.77
2018-08-09T08:40:00.264Z,10.47
2018-08-09T08:42:28.681Z,14.53
2018-08-09T08:44:57.171Z,15.33
2018-08-09T08:47:25.691Z,13.77
2018-08-09T08:49:54.201Z,15.27
2018-08-09T08:52:22.678Z,17.13
2018-08-09T08:54:51.124Z,16.43
2018-08-09T08:57:19.590Z,13.13
2018-08-09T08:59:48.065Z,17.20
2018-08-09T09:02:16.694Z,16.27
2018-08-09T09:04:45.194Z,16.07
2018-08-09T09:07:13.695Z,13.47
2018-08-09T09:09:42.309Z,13.30
2018-08-09T09:12:10.777Z,12.10
2018-08-09T09:14:39.411Z,14.10
2018-08-09T09:17:07.964Z,15.33
2018-08-09T09:19:36.407Z,12.70
2018-08-09T09:22:04.962Z,16.00
2018-08-09T09:24:33.469Z,16.13
2018-08-09T09:27:02.053Z,15.53
2018-08-09T09:29:30.573Z,13.67
2018-08-09T09:31:59.033Z,12.53
2018-08-09T09:34:27.601Z,14.30
2018-08-09T09:36:56.044Z,11.13
2018-08-09T09:39:24.511Z,8.00
2018-08-09T09:41:52.946Z,10.47
2018-08-09T09:44:21.378Z,9.47
2018-08-09T09:46:49.834Z,12.00
2018-08-09T09:49:18.264Z,13.73
2018-08-09T09:51:46.660Z,13.30
2018-08-09T09:54:15.089Z,13.67
2018-08-09T09:56:43.497Z,13.60
2018-08-09T09:59:11.998Z,13.63
2018-08-09T10:01:40.430Z,12.37
2018-08-09T10:04:08.841Z,12.83
2018-08-09T10:06:37.222Z,11.53
2018-08-09T10:09:09.263Z,9.17
2018-08-09T10:11:37.647Z,12.90
2018-08-09T10:14:06.196Z,13.07
2018-08-09T10:16:34.640Z,11.43
2018-08-09T10:19:03.737Z,11.23
2018-08-09T10:21:32.138Z,11.30
2018-08-09T10:24:00.548Z,10.97
2018-08-09T10:26:28.995Z,10.13
2018-08-09T10:28:57.442Z,8.73
2018-08-09T10:31:25.886Z,10.53
2018-08-09T10:33:54.282Z,12.97
2018-08-09T10:36:22.663Z,8.47
2018-08-09T10:38:51.240Z,11.30
2018-08-09T10:41:19.629Z,11.53
2018-08-09T10:43:48.061Z,9.70
2018-08-09T10:46:16.503Z,10.33
2018-08-09T10:48:44.906Z,9.53
2018-08-09T10:51:13.938Z,9.23
2018-08-09T10:53:42.323Z,9.80
2018-08-09T10:56:10.837Z,13.57
2018-08-09T10:58:39.301Z,9.63
2018-08-09T11:01:07.816Z,9.90
2018-08-09T11:03:36.219Z,14.77
2018-08-09T11:06:04.728Z,12.70
2018-08-09T11:08:33.165Z,15.33
2018-08-09T11:11:06.788Z,13.00
2018-08-09T11:13:35.173Z,12.40
2018-08-09T11:16:03.626Z,12.77
2018-08-09T11:18:32.042Z,17.93
2018-08-09T11:21:00.460Z,20.97
2018-08-09T11:23:28.898Z,15.80
2018-08-09T11:25:58.085Z,20.07
2018-08-09T11:28:26.589Z,14.30
2018-08-09T11:30:55.136Z,15.73
2018-08-09T11:33:23.965Z,18.57
2018-08-09T11:35:52.373Z,14.60
2018-08-09T11:38:21.057Z,15.23
2018-08-09T11:40:49.466Z,14.63
2018-08-09T11:43:17.893Z,14.50
2018-08-09T11:45:47.176Z,17.03
2018-08-09T11:48:15.665Z,16.90
2018-08-09T11:50:44.230Z,16.83
2018-08-09T11:53:12.671Z,17.73
2018-08-09T11:55:41.051Z,17.83
2018-08-09T11:58:09.496Z,18.57
2018-08-09T12:00:37.893Z,19.00
2018-08-09T12:03:06.310Z,20.03
2018-08-09T12:05:34.803Z,19.77
2018-08-09T12:08:03.229Z,19.93
2018-08-09T12:10:31.604Z,21.30
2018-08-09T12:13:00.985Z,20.90
2018-08-09T12:15:29.982Z,20.00
2018-08-09T12:17:58.449Z,21.37
2018-08-09T12:20:26.853Z,20.20
2018-08-09T12:22:55.273Z,20.57
2018-08-09T12:25:23.833Z,20.40
2018-08-09T12:27:52.246Z,19.47
2018-08-09T12:30:20.660Z,20.07
2018-08-09T12:32:49.689Z,20.70
2018-08-09T12:35:18.128Z,19.17
2018-08-09T12:37:46.598Z,19.13
2018-08-09T12:40:15.062Z,18.43
2018-08-09T12:42:43.497Z,16.73
2018-08-09T12:45:12.709Z,16.70
2018-08-09T12:47:41.297Z,17.93
2018-08-09T12:50:12.569Z,17.60
2018-08-09T12:52:41.930Z,17.60
2018-08-09T12:55:10.797Z,18.97
2018-08-09T12:57:39.258Z,18.90
2018-08-09T13:00:10.235Z,19.30
2018-08-09T13:02:38.694Z,16.67
2018-08-09T13:05:08.846Z,19.73
2018-08-09T13:07:37.860Z,19.53
2018-08-09T13:10:08.129Z,19.67
2018-08-09T13:12:36.686Z,20.17
2018-08-09T13:15:07.213Z,20.10
2018-08-09T13:17:35.685Z,20.63
2018-08-09T13:20:04.681Z,22.63
2018-08-09T13:22:33.961Z,21.93
2018-08-09T13:25:02.375Z,23.47
2018-08-09T13:27:30.796Z,23.67
2018-08-09T13:29:59.269Z,23.43
2018-08-09T13:32:28.195Z,24.57
2018-08-09T13:34:56.666Z,25.47
2018-08-09T13:37:25.085Z,23.07
2018-08-09T13:39:53.614Z,24.53
2018-08-09T13:42:22.145Z,25.53
2018-08-09T13:44:50.581Z,23.80
2018-08-09T13:47:19.019Z,25.57
2018-08-09T13:49:47.485Z,25.17
2018-08-09T13:52:16.065Z,26.20
2018-08-09T13:54:44.450Z,26.93
2018-08-09T13:57:12.910Z,25.00
2018-08-09T13:59:41.369Z,26.07
2018-08-09T14:02:09.853Z,26.60
2018-08-09T14:04:38.310Z,26.40
2018-08-09T14:07:07.284Z,29.00
2018-08-09T14:09:35.702Z,27.83
2018-08-09T14:12:04.125Z,28.87
2018-08-09T14:14:32.561Z,30.27
2018-08-09T14:17:01.025Z,31.57
2018-08-09T14:19:29.460Z,30.23
2018-08-09T14:21:57.926Z,31.87
2018-08-09T14:24:26.381Z,32.93
2018-08-09T14:26:54.848Z,32.67
2018-08-09T14:29:23.340Z,35.17
2018-08-09T14:31:51.759Z,35.20
2018-08-09T14:34:20.149Z,36.17
2018-08-09T14:36:48.537Z,33.47
2018-08-09T14:39:17.041Z,34.50
2018-08-09T14:41:45.505Z,32.97
2018-08-09T14:44:13.910Z,34.37
2018-08-09T14:46:42.327Z,35.50
2018-08-09T14:49:10.772Z,36.17
2018-08-09T14:51:39.643Z,33.97
2018-08-09T14:54:08.036Z,36.00
2018-08-09T14:56:36.469Z,39.17
2018-08-09T14:59:05.436Z,36.43
2018-08-09T15:01:33.957Z,36.33
2018-08-09T15:04:02.484Z,37.40
2018-08-09T15:06:30.991Z,38.53
2018-08-09T15:08:59.573Z,40.67
2018-08-09T15:11:28.193Z,42.03
2018-08-09T15:13:56.621Z,40.63
2018-08-09T15:16:25.117Z,42.80
2018-08-09T15:18:54.257Z,42.83
2018-08-09T15:21:22.769Z,43.80
2018-08-09T15:23:51.950Z,43.77
2018-08-09T15:26:20.390Z,43.67
2018-08-09T15:28:48.856Z,40.83
2018-08-09T15:31:17.401Z,40.93
2018-08-09T15:33:45.781Z,42.10
2018-08-09T15:36:14.246Z,43.87
2018-08-09T15:38:42.646Z,39.73
2018-08-09T15:41:11.066Z,39.53
2018-08-09T15:43:39.497Z,38.43
2018-08-09T15:46:08.449Z,31.73
2018-08-09T15:48:37.250Z,30.00
2018-08-09T15:51:05.713Z,27.70
2018-08-09T15:53:34.593Z,26.40
2018-08-09T15:56:03.056Z,21.13
2018-08-09T15:58:31.789Z,17.40
2018-08-09T16:01:00.330Z,15.90
2018-08-09T16:03:28.933Z,15.30
2018-08-09T16:05:57.418Z,13.73
2018-08-09T16:08:25.797Z,13.23
2018-08-09T16:10:54.205Z,9.67
2018-08-09T16:13:22.665Z,9.63
2018-08-09T16:15:51.106Z,11.57
2018-08-09T16:18:19.525Z,9.67
2018-08-09T16:20:48.058Z,9.97
2018-08-09T16:23:16.471Z,8.73
2018-08-09T16:25:44.890Z,8.27
2018-08-09T16:28:13.423Z,7.73
2018-08-09T16:30:41.993Z,7.13
2018-08-09T16:33:11.422Z,8.83
2018-08-09T16:35:39.870Z,5.47
2018-08-09T16:38:08.286Z,7.90
2018-08-09T16:40:36.774Z,5.50
2018-08-09T16:43:05.262Z,5.63
2018-08-09T16:45:33.875Z,7.57
2018-08-09T16:48:02.236Z,8.13
2018-08-09T16:50:30.861Z,6.60
2018-08-09T16:52:59.317Z,8.80
2018-08-09T16:55:28.034Z,7.47
2018-08-09T16:57:56.557Z,6.47
2018-08-09T17:00:25.834Z,6.87
2018-08-09T17:02:55.134Z,7.27
2018-08-09T17:05:25.268Z,7.70
2018-08-09T17:07:53.882Z,8.33
2018-08-09T17:10:23.930Z,6.63
2018-08-09T17:12:52.542Z,6.57
2018-08-09T17:15:23.815Z,5.77
2018-08-09T17:17:52.795Z,5.50
2018-08-09T17:20:24.496Z,4.77
2018-08-09T17:22:52.962Z,7.33
2018-08-09T17:25:21.617Z,3.57
2018-08-09T17:27:50.391Z,3.80
2018-08-09T17:30:21.445Z,3.53
2018-08-09T17:32:49.860Z,3.10
2018-08-09T17:35:18.894Z,2.93
2018-08-09T17:37:48.970Z,2.93
2018-08-09T17:40:28.166Z,4.43
2018-08-09T17:42:57.393Z,4.13
2018-08-09T17:45:29.258Z,2.70
2018-08-09T17:47:57.918Z,4.23
2018-08-09T17:50:26.405Z,2.10
2018-08-09T17:52:56.446Z,2.40
2018-08-09T17:55:25.023Z,2.43
2018-08-09T17:57:53.550Z,2.33
2018-08-09T18:00:25.529Z,3.13
2018-08-09T18:02:54.665Z,3.37
2018-08-09T18:05:23.460Z,2.20
2018-08-09T18:07:52.617Z,1.97
2018-08-09T18:10:23.241Z,2.90
2018-08-09T18:12:51.905Z,2.30
2018-08-09T18:15:21.065Z,2.37
2018-08-09T18:17:49.951Z,2.40
2018-08-09T18:20:20.018Z,2.30
2018-08-09T18:22:48.659Z,2.73
2018-08-09T18:25:17.105Z,2.63
2018-08-09T18:27:45.582Z,2.60
2018-08-09T18:30:16.091Z,2.87
2018-08-09T18:32:44.848Z,3.20
2018-08-09T18:35:16.677Z,3.13
2018-08-09T18:37:45.090Z,3.60
2018-08-09T18:40:19.449Z,2.60
2018-08-09T18:42:48.010Z,3.13
2018-08-09T18:45:16.562Z,5.10
2018-08-09T18:47:45.329Z,5.70
2018-08-09T18:50:20.569Z,6.20
2018-08-09T18:52:49.067Z,5.70
2018-08-09T18:55:18.384Z,6.93
2018-08-09T18:57:47.080Z,6.37
2018-08-09T19:00:19.430Z,6.03
2018-08-09T19:02:48.517Z,6.57
2018-08-09T19:05:16.998Z,6.37
2018-08-09T19:07:45.593Z,6.70
2018-08-09T19:10:17.437Z,6.73
2018-08-09T19:12:45.916Z,6.73
2018-08-09T19:15:14.357Z,5.50
2018-08-09T19:17:43.770Z,3.67
2018-08-09T19:20:18.317Z,2.87
2018-08-09T19:22:46.838Z,3.17
2018-08-09T19:25:15.552Z,1.90
2018-08-09T19:27:44.205Z,1.50
2018-08-09T19:30:14.471Z,3.03
2018-08-09T19:32:42.910Z,1.00
2018-08-09T19:35:12.849Z,1.20
2018-08-09T19:37:41.662Z,2.73
2018-08-09T19:40:11.894Z,2.70
2018-08-09T19:42:41.069Z,1.10
2018-08-09T19:45:12.251Z,2.73
2018-08-09T19:47:40.734Z,1.40
2018-08-09T19:50:12.426Z,2.50
2018-08-09T19:52:41.024Z,1.90
2018-08-09T19:55:12.785Z,1.40
2018-08-09T19:57:42.840Z,1.20
2018-08-09T20:00:13.881Z,1.53
2018-08-09T20:02:42.617Z,1.10
2018-08-09T20:05:11.510Z,1.40
2018-08-09T20:07:39.982Z,1.53
2018-08-09T20:10:10.003Z,1.60
2018-08-09T20:12:38.615Z,1.83
2018-08-09T20:15:09.112Z,3.00
2018-08-09T20:17:37.629Z,2.27
2018-08-09T20:20:06.677Z,2.13
2018-08-09T20:22:35.190Z,2.03
2018-08-09T20:25:03.933Z,2.10
2018-08-09T20:27:32.470Z,2.40
2018-08-09T20:30:00.976Z,3.03
2018-08-09T20:32:29.405Z,2.10
2018-08-09T20:34:57.877Z,2.57
2018-08-09T20:37:26.331Z,2.63
2018-08-09T20:39:55.931Z,1.93
2018-08-09T20:42:24.389Z,2.70
2018-08-09T20:44:53.349Z,2.40
2018-08-09T20:47:21.925Z,2.33
2018-08-09T20:49:50.477Z,2.43
2018-08-09T20:52:25.511Z,3.60
2018-08-09T20:54:54.055Z,2.83
2018-08-09T20:57:22.520Z,2.73
2018-08-09T20:59:50.963Z,2.80
2018-08-09T21:02:19.521Z,2.50
2018-08-09T21:04:48.010Z,2.30
2018-08-09T21:07:16.483Z,2.43
2018-08-09T21:09:44.894Z,2.20
2018-08-09T21:12:13.497Z,2.03
2018-08-09T21:14:42.074Z,4.00
2018-08-09T21:17:10.501Z,2.10
2018-08-09T21:19:38.919Z,1.87
2018-08-09T21:22:07.416Z,1.10
2018-08-09T21:24:35.843Z,1.53
2018-08-09T21:27:04.272Z,1.30
2018-08-09T21:29:32.685Z,1.40
2018-08-09T21:32:01.089Z,1.07
2018-08-09T21:34:29.603Z,1.33
2018-08-09T21:36:58.061Z,0.73
2018-08-09T21:39:26.502Z,0.77
2018-08-09T21:41:55.004Z,2.67
2018-08-09T21:44:23.553Z,1.50
2018-08-09T21:46:51.958Z,1.47
2018-08-09T21:49:20.546Z,1.00
2018-08-09T21:51:48.967Z,1.23
2018-08-09T21:54:17.370Z,1.63
2018-08-09T21:56:45.793Z,2.20
2018-08-09T21:59:14.390Z,2.30
2018-08-09T22:01:42.834Z,1.83
2018-08-09T22:04:11.242Z,2.50
2018-08-09T22:06:44.937Z,2.13
2018-08-09T22:09:18.829Z,3.37
2018-08-09T22:11:52.523Z,2.70
2018-08-09T22:14:26.354Z,2.07
2018-08-09T22:17:00.074Z,2.67
2018-08-09T22:19:33.877Z,3.00
2018-08-09T22:22:09.022Z,3.53
2018-08-09T22:24:37.587Z,5.40
2018-08-09T22:27:06.767Z,3.77
2018-08-09T22:29:35.177Z,5.90
2018-08-09T22:32:03.650Z,3.73
2018-08-09T22:34:32.141Z,3.73
2018-08-09T22:37:00.627Z,6.10
2018-08-09T22:39:29.737Z,5.83
2018-08-09T22:41:58.175Z,4.00
2018-08-09T22:44:26.655Z,4.70
2018-08-09T22:46:55.200Z,4.70
2018-08-09T22:49:23.652Z,3.33
2018-08-09T22:51:52.054Z,5.30
2018-08-09T22:54:20.507Z,5.00
2018-08-09T22:56:49.006Z,4.87
2018-08-09T22:59:18.370Z,7.40
2018-08-09T23:01:46.993Z,4.33
2018-08-09T23:04:15.746Z,3.70
2018-08-09T23:06:44.301Z,3.90
2018-08-09T23:09:12.710Z,3.83
2018-08-09T23:11:41.253Z,5.87
2018-08-09T23:14:09.794Z,3.00
2018-08-09T23:16:38.485Z,4.27
2018-08-09T23:19:06.949Z,7.40
2018-08-09T23:21:35.378Z,5.23
2018-08-09T23:24:03.885Z,3.73
2018-08-09T23:26:32.402Z,3.70
2018-08-09T23:29:01.709Z,6.73
2018-08-09T23:31:30.254Z,3.47
2018-08-09T23:33:58.717Z,6.20
2018-08-09T23:36:27.157Z,5.20
2018-08-09T23:38:55.650Z,4.17
2018-08-09T23:41:24.177Z,4.40
2018-08-09T23:43:52.639Z,6.07
2018-08-09T23:46:21.144Z,5.97
2018-08-09T23:48:49.618Z,4.83
2018-08-09T23:51:18.076Z,2.93
2018-08-09T23:53:46.486Z,4.23
2018-08-09T23:56:15.020Z,5.43
2018-08-09T23:58:43.568Z,7.10
